createdAt,value
2018-08-24T00:00:53.218Z,0.00
2018-08-24T00:01:53.178Z,0.00
2018-08-24T00:02:53.159Z,0.00
2018-08-24T00:03:53.119Z,0.00
2018-08-24T00:04:53.088Z,0.00
2018-08-24T00:05:53.061Z,0.00
2018-08-24T00:06:53.028Z,0.00
2018-08-24T00:07:52.987Z,0.00
2018-08-24T00:08:52.954Z,0.00
2018-08-24T00:09:52.931Z,0.00
2018-08-24T00:10:52.897Z,0.00
2018-08-24T00:11:52.865Z,0.00
2018-08-24T00:12:52.831Z,0.00
2018-08-24T00:13:52.794Z,0.00
2018-08-24T00:14:52.771Z,0.00
2018-08-24T00:15:52.732Z,0.00
2018-08-24T00:16:52.704Z,0.00
2018-08-24T00:17:52.668Z,0.00
2018-08-24T00:18:52.629Z,0.00
2018-08-24T00:19:52.599Z,0.00
2018-08-24T00:20:52.567Z,0.00
2018-08-24T00:21:52.533Z,0.00
2018-08-24T00:22:52.506Z,0.00
2018-08-24T00:23:52.471Z,0.00
2018-08-24T00:24:52.442Z,0.00
2018-08-24T00:25:52.409Z,0.00
2018-08-24T00:26:52.371Z,0.00
2018-08-24T00:27:52.340Z,0.00
2018-08-24T00:28:52.308Z,0.00
2018-08-24T00:29:52.280Z,0.00
2018-08-24T00:30:52.241Z,0.00
2018-08-24T00:31:52.299Z,0.00
2018-08-24T00:32:52.176Z,0.00
2018-08-24T00:33:52.143Z,0.00
2018-08-24T00:34:52.115Z,0.00
2018-08-24T00:35:52.100Z,0.00
2018-08-24T00:36:52.048Z,0.00
2018-08-24T00:37:52.023Z,0.00
2018-08-24T00:38:51.978Z,0.00
2018-08-24T00:39:51.948Z,0.00
2018-08-24T00:40:51.914Z,0.00
2018-08-24T00:41:51.881Z,0.00
2018-08-24T00:42:51.855Z,0.00
2018-08-24T00:43:51.822Z,0.00
2018-08-24T00:44:51.786Z,0.00
2018-08-24T00:45:51.753Z,0.00
2018-08-24T00:46:51.725Z,0.00
2018-08-24T00:47:51.693Z,0.00
2018-08-24T00:48:51.659Z,0.00
2018-08-24T00:49:51.629Z,0.00
2018-08-24T00:50:51.590Z,0.00
2018-08-24T00:51:51.557Z,0.00
2018-08-24T00:52:51.523Z,0.00
2018-08-24T00:53:51.490Z,0.00
2018-08-24T00:54:51.463Z,0.00
2018-08-24T00:55:51.430Z,0.00
2018-08-24T00:56:51.396Z,0.00
2018-08-24T00:57:51.365Z,0.00
2018-08-24T00:58:51.328Z,0.00
2018-08-24T00:59:51.295Z,0.00
2018-08-24T01:00:51.264Z,0.00
2018-08-24T01:01:51.233Z,0.00
2018-08-24T01:02:51.195Z,0.00
2018-08-24T01:03:51.172Z,0.00
2018-08-24T01:04:51.131Z,0.00
2018-08-24T01:05:51.096Z,0.00
2018-08-24T01:06:51.073Z,0.00
2018-08-24T01:07:51.034Z,0.00
2018-08-24T01:08:51.001Z,0.00
2018-08-24T01:09:50.971Z,0.00
2018-08-24T01:10:50.935Z,0.00
2018-08-24T01:11:50.901Z,0.00
2018-08-24T01:12:50.872Z,0.00
2018-08-24T01:13:50.833Z,0.00
2018-08-24T01:14:50.805Z,0.00
2018-08-24T01:15:50.771Z,0.00
2018-08-24T01:16:50.735Z,0.00
2018-08-24T01:17:50.704Z,0.00
2018-08-24T01:18:50.673Z,0.00
2018-08-24T01:19:50.640Z,0.00
2018-08-24T01:20:50.607Z,0.00
2018-08-24T01:21:50.575Z,0.00
2018-08-24T01:22:50.535Z,0.00
2018-08-24T01:23:50.505Z,0.00
2018-08-24T01:24:50.486Z,0.00
2018-08-24T01:25:50.441Z,0.00
2018-08-24T01:26:50.412Z,0.00
2018-08-24T01:27:50.378Z,0.00
2018-08-24T01:28:50.341Z,0.00
2018-08-24T01:29:50.320Z,0.00
2018-08-24T01:30:50.271Z,0.00
2018-08-24T01:31:50.244Z,0.00
2018-08-24T01:32:50.217Z,0.00
2018-08-24T01:33:50.181Z,0.00
2018-08-24T01:34:50.157Z,0.00
2018-08-24T01:35:50.108Z,0.00
2018-08-24T01:36:50.072Z,0.00
2018-08-24T01:37:50.038Z,0.00
2018-08-24T01:38:50.011Z,0.00
2018-08-24T01:39:49.978Z,0.00
2018-08-24T01:40:49.944Z,0.00
2018-08-24T01:41:49.911Z,0.00
2018-08-24T01:42:49.871Z,0.00
2018-08-24T01:43:49.840Z,0.00
2018-08-24T01:44:49.809Z,0.00
2018-08-24T01:45:49.771Z,0.00
2018-08-24T01:46:49.744Z,0.00
2018-08-24T01:47:49.709Z,0.00
2018-08-24T01:48:49.675Z,0.00
2018-08-24T01:49:49.638Z,0.00
2018-08-24T01:50:49.614Z,0.00
2018-08-24T01:51:49.574Z,0.00
2018-08-24T01:52:49.543Z,0.00
2018-08-24T01:53:49.512Z,0.00
2018-08-24T01:54:49.470Z,0.00
2018-08-24T01:55:49.438Z,0.00
2018-08-24T01:56:49.404Z,0.00
2018-08-24T01:57:49.371Z,0.00
2018-08-24T01:58:49.342Z,0.00
2018-08-24T01:59:49.307Z,0.00
2018-08-24T02:00:49.274Z,0.00
2018-08-24T02:01:49.241Z,0.00
2018-08-24T02:02:49.202Z,0.00
2018-08-24T02:03:49.171Z,0.00
2018-08-24T02:04:49.140Z,0.00
2018-08-24T02:05:49.108Z,0.00
2018-08-24T02:06:49.071Z,0.00
2018-08-24T02:07:49.040Z,0.00
2018-08-24T02:08:49.007Z,0.00
2018-08-24T02:09:48.969Z,0.00
2018-08-24T02:10:48.941Z,0.00
2018-08-24T02:11:48.908Z,0.00
2018-08-24T02:12:48.867Z,0.00
2018-08-24T02:13:48.831Z,0.00
2018-08-24T02:14:48.806Z,0.00
2018-08-24T02:15:48.772Z,0.00
2018-08-24T02:16:48.738Z,0.00
2018-08-24T02:17:48.706Z,0.00
2018-08-24T02:18:48.666Z,0.00
2018-08-24T02:19:48.632Z,0.00
2018-08-24T02:20:48.600Z,0.00
2018-08-24T02:21:48.569Z,0.00
2018-08-24T02:22:48.532Z,0.00
2018-08-24T02:23:48.498Z,0.00
2018-08-24T02:24:48.464Z,0.00
2018-08-24T02:25:48.428Z,0.00
2018-08-24T02:26:48.400Z,0.00
2018-08-24T02:27:48.365Z,0.00
2018-08-24T02:28:48.331Z,0.00
2018-08-24T02:29:48.305Z,0.00
2018-08-24T02:30:48.261Z,0.00
2018-08-24T02:31:48.229Z,0.00
2018-08-24T02:32:48.199Z,0.00
2018-08-24T02:33:48.164Z,0.00
2018-08-24T02:34:48.137Z,0.00
2018-08-24T02:35:48.099Z,0.00
2018-08-24T02:36:48.062Z,0.00
2018-08-24T02:37:48.023Z,0.00
2018-08-24T02:38:47.995Z,0.00
2018-08-24T02:39:47.959Z,0.00
2018-08-24T02:40:47.928Z,0.00
2018-08-24T02:41:47.893Z,0.00
2018-08-24T02:42:47.852Z,0.00
2018-08-24T02:43:47.820Z,0.00
2018-08-24T02:44:47.785Z,0.00
2018-08-24T02:45:47.751Z,0.00
2018-08-24T02:46:47.724Z,0.00
2018-08-24T02:47:47.686Z,0.00
2018-08-24T02:48:47.652Z,0.00
2018-08-24T02:49:47.620Z,0.00
2018-08-24T02:50:47.582Z,0.00
2018-08-24T02:51:47.575Z,0.00
2018-08-24T02:52:47.521Z,0.00
2018-08-24T02:53:47.488Z,0.00
2018-08-24T02:54:47.448Z,0.00
2018-08-24T02:55:47.412Z,0.00
2018-08-24T02:56:47.378Z,0.00
2018-08-24T02:57:47.345Z,0.00
2018-08-24T02:58:47.314Z,0.00
2018-08-24T02:59:47.279Z,0.00
2018-08-24T03:00:47.244Z,0.00
2018-08-24T03:01:47.220Z,0.00
2018-08-24T03:02:47.180Z,0.00
2018-08-24T03:03:47.142Z,0.00
2018-08-24T03:04:47.105Z,0.00
2018-08-24T03:05:47.070Z,0.00
2018-08-24T03:06:47.043Z,0.00
2018-08-24T03:07:47.006Z,0.00
2018-08-24T03:08:46.968Z,0.00
2018-08-24T03:09:46.936Z,0.00
2018-08-24T03:10:46.905Z,0.00
2018-08-24T03:11:46.874Z,0.00
2018-08-24T03:12:46.840Z,0.00
2018-08-24T03:13:46.807Z,0.00
2018-08-24T03:14:46.763Z,0.00
2018-08-24T03:15:46.731Z,0.00
2018-08-24T03:16:46.696Z,0.00
2018-08-24T03:17:46.663Z,0.00
2018-08-24T03:18:46.631Z,0.00
2018-08-24T03:19:46.596Z,0.00
2018-08-24T03:20:46.563Z,0.00
2018-08-24T03:21:46.530Z,0.00
2018-08-24T03:22:46.489Z,0.00
2018-08-24T03:23:46.464Z,0.00
2018-08-24T03:24:46.423Z,0.00
2018-08-24T03:25:46.393Z,0.00
2018-08-24T03:26:46.352Z,0.00
2018-08-24T03:27:46.320Z,0.00
2018-08-24T03:28:46.286Z,0.00
2018-08-24T03:29:46.251Z,0.00
2018-08-24T03:30:46.228Z,0.00
2018-08-24T03:31:46.188Z,0.00
2018-08-24T03:32:46.181Z,0.00
2018-08-24T03:33:46.119Z,0.00
2018-08-24T03:34:46.078Z,0.00
2018-08-24T03:35:46.047Z,0.00
2018-08-24T03:36:46.012Z,0.00
2018-08-24T03:37:45.977Z,0.00
2018-08-24T03:38:45.948Z,0.00
2018-08-24T03:39:45.912Z,0.00
2018-08-24T03:40:45.874Z,0.00
2018-08-24T03:41:45.841Z,0.00
2018-08-24T03:42:45.811Z,0.00
2018-08-24T03:43:45.777Z,0.00
2018-08-24T03:44:45.740Z,0.00
2018-08-24T03:45:45.781Z,0.00
2018-08-24T03:46:45.677Z,0.00
2018-08-24T03:47:45.649Z,0.00
2018-08-24T03:48:45.600Z,0.00
2018-08-24T03:49:45.616Z,0.00
2018-08-24T03:50:45.539Z,0.00
2018-08-24T03:51:45.500Z,0.00
2018-08-24T03:52:45.487Z,0.00
2018-08-24T03:53:45.434Z,0.00
2018-08-24T04:07:27.396Z,0.00
2018-08-24T04:08:27.326Z,0.00
2018-08-24T04:09:27.289Z,4.00
2018-08-24T04:10:27.251Z,4.00
2018-08-24T04:11:27.215Z,4.00
2018-08-24T04:12:27.173Z,4.00
2018-08-24T04:13:27.139Z,0.00
2018-08-24T04:14:27.098Z,4.00
2018-08-24T04:15:27.068Z,4.00
2018-08-24T04:16:27.020Z,4.00
2018-08-24T04:17:26.986Z,8.00
2018-08-24T04:18:26.955Z,4.00
2018-08-24T04:19:27.042Z,4.00
2018-08-24T04:20:26.883Z,8.00
2018-08-24T04:21:26.852Z,8.00
2018-08-24T04:22:26.808Z,4.00
2018-08-24T04:23:26.770Z,8.00
2018-08-24T04:24:26.740Z,8.00
2018-08-24T04:25:26.705Z,8.00
2018-08-24T04:26:26.670Z,8.00
2018-08-24T04:27:26.636Z,12.00
2018-08-24T04:28:26.598Z,12.00
2018-08-24T04:29:26.563Z,16.00
2018-08-24T04:30:26.529Z,16.00
2018-08-24T04:31:26.497Z,20.00
2018-08-24T04:32:26.462Z,24.00
2018-08-24T04:33:26.422Z,24.00
2018-08-24T04:34:26.393Z,24.00
2018-08-24T04:35:26.354Z,28.00
2018-08-24T04:36:26.314Z,28.00
2018-08-24T04:37:26.291Z,36.00
2018-08-24T04:38:26.247Z,40.00
2018-08-24T04:39:26.215Z,48.00
2018-08-24T04:40:26.255Z,48.00
2018-08-24T04:41:26.143Z,56.00
2018-08-24T04:42:26.109Z,56.00
2018-08-24T04:43:26.074Z,60.00
2018-08-24T04:44:26.040Z,64.00
2018-08-24T04:45:26.049Z,76.00
2018-08-24T04:46:25.970Z,76.00
2018-08-24T04:47:25.936Z,88.00
2018-08-24T04:48:25.895Z,92.00
2018-08-24T04:49:25.863Z,92.00
2018-08-24T04:50:25.830Z,100.00
2018-08-24T04:51:25.827Z,108.00
2018-08-24T04:52:25.763Z,120.00
2018-08-24T04:53:25.728Z,132.00
2018-08-24T04:54:25.691Z,144.00
2018-08-24T04:55:25.653Z,148.00
2018-08-24T04:56:25.646Z,152.00
2018-08-24T04:57:25.587Z,148.00
2018-08-24T04:58:25.602Z,144.00
2018-08-24T04:59:25.520Z,136.00
2018-08-24T05:00:25.483Z,124.00
2018-08-24T05:01:25.446Z,124.00
2018-08-24T05:02:25.411Z,128.00
2018-08-24T05:03:25.374Z,132.00
2018-08-24T05:04:25.345Z,140.00
2018-08-24T05:05:25.312Z,152.00
2018-08-24T05:06:25.278Z,164.00
2018-08-24T05:07:25.243Z,184.00
2018-08-24T05:08:25.206Z,188.00
2018-08-24T05:09:25.231Z,200.00
2018-08-24T05:10:25.135Z,212.00
2018-08-24T05:11:25.106Z,216.00
2018-08-24T05:12:25.065Z,216.00
2018-08-24T05:13:25.031Z,220.00
2018-08-24T05:14:24.996Z,216.00
2018-08-24T05:15:24.959Z,224.00
2018-08-24T05:16:24.930Z,244.00
2018-08-24T05:17:24.895Z,256.00
2018-08-24T05:18:24.859Z,260.00
2018-08-24T05:19:24.827Z,268.00
2018-08-24T05:20:24.794Z,280.00
2018-08-24T05:21:24.767Z,292.00
2018-08-24T05:22:24.725Z,312.00
2018-08-24T05:23:24.682Z,340.00
2018-08-24T05:24:24.654Z,368.00
2018-08-24T05:25:24.617Z,384.00
2018-08-24T05:26:24.582Z,416.00
2018-08-24T05:27:24.550Z,448.00
2018-08-24T05:28:24.516Z,460.00
2018-08-24T05:29:24.479Z,456.00
2018-08-24T05:30:24.447Z,448.00
2018-08-24T05:31:24.414Z,448.00
2018-08-24T05:32:24.371Z,452.00
2018-08-24T05:33:24.344Z,456.00
2018-08-24T05:34:24.307Z,464.00
2018-08-24T05:35:24.270Z,464.00
2018-08-24T05:36:24.242Z,460.00
2018-08-24T05:37:24.203Z,460.00
2018-08-24T05:38:24.169Z,456.00
2018-08-24T05:39:24.136Z,452.00
2018-08-24T05:40:24.096Z,456.00
2018-08-24T05:41:24.131Z,480.00
2018-08-24T05:42:24.028Z,512.00
2018-08-24T05:43:24.001Z,520.00
2018-08-24T05:44:23.958Z,528.00
2018-08-24T05:45:23.931Z,552.00
2018-08-24T05:46:23.892Z,532.00
2018-08-24T05:47:23.858Z,524.00
2018-08-24T05:48:23.828Z,524.00
2018-08-24T05:49:23.792Z,520.00
2018-08-24T05:50:23.761Z,508.00
2018-08-24T05:51:23.725Z,492.00
2018-08-24T05:52:23.682Z,492.00
2018-08-24T05:53:23.651Z,516.00
2018-08-24T05:54:23.616Z,544.00
2018-08-24T05:55:23.580Z,576.00
2018-08-24T05:56:23.554Z,632.00
2018-08-24T05:57:23.515Z,672.00
2018-08-24T05:58:23.479Z,700.00
2018-08-24T05:59:23.443Z,744.00
2018-08-24T06:00:23.416Z,824.00
2018-08-24T06:01:23.378Z,924.00
2018-08-24T06:02:23.344Z,1004.00
2018-08-24T06:03:23.311Z,1080.00
2018-08-24T06:04:23.274Z,1112.00
2018-08-24T06:05:23.240Z,1152.00
2018-08-24T06:06:23.205Z,1200.00
2018-08-24T06:07:23.177Z,1240.00
2018-08-24T06:08:23.146Z,1264.00
2018-08-24T06:09:23.103Z,1288.00
2018-08-24T06:10:23.069Z,1304.00
2018-08-24T06:11:23.055Z,1304.00
2018-08-24T06:12:22.996Z,1308.00
2018-08-24T06:13:22.964Z,1300.00
2018-08-24T06:14:22.932Z,1288.00
2018-08-24T06:15:22.902Z,1288.00
2018-08-24T06:16:22.858Z,1304.00
2018-08-24T06:17:22.828Z,1344.00
2018-08-24T06:18:22.793Z,1380.00
2018-08-24T06:19:22.758Z,1420.00
2018-08-24T06:20:22.729Z,1448.00
2018-08-24T06:21:22.693Z,1476.00
2018-08-24T06:22:22.661Z,1496.00
2018-08-24T06:23:22.620Z,1524.00
2018-08-24T06:24:22.604Z,1552.00
2018-08-24T06:25:22.555Z,1584.00
2018-08-24T06:26:22.526Z,1648.00
2018-08-24T06:27:22.491Z,1712.00
2018-08-24T06:28:22.448Z,1768.00
2018-08-24T06:29:22.426Z,1820.00
2018-08-24T06:30:22.390Z,1872.00
2018-08-24T06:31:22.353Z,1944.00
2018-08-24T06:32:22.312Z,1992.00
2018-08-24T06:33:22.279Z,2028.00
2018-08-24T06:34:22.246Z,2024.00
2018-08-24T06:35:22.210Z,2012.00
2018-08-24T06:36:22.181Z,2008.00
2018-08-24T06:37:22.148Z,1992.00
2018-08-24T06:38:22.120Z,1956.00
2018-08-24T06:39:22.081Z,1912.00
2018-08-24T06:40:22.042Z,1888.00
2018-08-24T06:41:22.011Z,1828.00
2018-08-24T06:42:21.973Z,1788.00
2018-08-24T06:43:21.939Z,1748.00
2018-08-24T06:44:21.909Z,1748.00
2018-08-24T06:45:21.876Z,1748.00
2018-08-24T06:46:21.837Z,1748.00
2018-08-24T06:47:21.921Z,1760.00
2018-08-24T06:48:21.773Z,1816.00
2018-08-24T06:49:21.737Z,1960.00
2018-08-24T06:50:21.704Z,1952.00
2018-08-24T06:51:21.672Z,1736.00
2018-08-24T06:52:21.631Z,1660.00
2018-08-24T06:53:21.702Z,1636.00
2018-08-24T06:54:21.568Z,1640.00
2018-08-24T06:55:21.532Z,1628.00
2018-08-24T06:56:21.501Z,1604.00
2018-08-24T06:57:21.468Z,1584.00
2018-08-24T06:58:21.432Z,1536.00
2018-08-24T06:59:21.400Z,1472.00
2018-08-24T07:00:21.361Z,1396.00
2018-08-24T07:01:21.334Z,1360.00
2018-08-24T07:02:21.305Z,1316.00
2018-08-24T07:03:21.275Z,1292.00
2018-08-24T07:04:21.226Z,1288.00
2018-08-24T07:05:21.192Z,1312.00
2018-08-24T07:06:21.256Z,1332.00
2018-08-24T07:07:21.122Z,1360.00
2018-08-24T07:08:21.094Z,1376.00
2018-08-24T07:09:21.057Z,1380.00
2018-08-24T07:10:21.025Z,1356.00
2018-08-24T07:11:20.993Z,1328.00
2018-08-24T07:12:20.953Z,1316.00
2018-08-24T07:13:20.919Z,1296.00
2018-08-24T07:14:20.884Z,1264.00
2018-08-24T07:15:20.850Z,1216.00
2018-08-24T07:16:20.828Z,1176.00
2018-08-24T07:17:20.787Z,1148.00
2018-08-24T07:18:20.750Z,1144.00
2018-08-24T07:19:20.717Z,1084.00
2018-08-24T07:20:20.686Z,1012.00
2018-08-24T07:21:20.656Z,1012.00
2018-08-24T07:22:20.614Z,1000.00
2018-08-24T07:23:20.589Z,1020.00
2018-08-24T07:24:20.541Z,1052.00
2018-08-24T07:25:20.510Z,1116.00
2018-08-24T07:26:20.480Z,1180.00
2018-08-24T07:27:20.441Z,1204.00
2018-08-24T07:28:20.412Z,1224.00
2018-08-24T07:29:20.377Z,1296.00
2018-08-24T07:30:20.342Z,1384.00
2018-08-24T07:31:20.313Z,1488.00
2018-08-24T07:32:20.270Z,1592.00
2018-08-24T07:33:20.237Z,1656.00
2018-08-24T07:34:20.206Z,1748.00
2018-08-24T07:35:20.174Z,1876.00
2018-08-24T07:36:20.135Z,1976.00
2018-08-24T07:37:20.103Z,2012.00
2018-08-24T07:38:20.070Z,2032.00
2018-08-24T07:39:20.033Z,2040.00
2018-08-24T07:40:20.007Z,2116.00
2018-08-24T07:41:19.985Z,2264.00
2018-08-24T07:42:19.934Z,2388.00
2018-08-24T07:43:19.921Z,2496.00
2018-08-24T07:44:19.861Z,2612.00
2018-08-24T07:45:19.830Z,2776.00
2018-08-24T07:46:19.799Z,2876.00
2018-08-24T07:47:19.767Z,2864.00
2018-08-24T07:48:19.732Z,2728.00
2018-08-24T07:49:19.695Z,2712.00
2018-08-24T07:50:19.663Z,2716.00
2018-08-24T07:51:19.629Z,2616.00
2018-08-24T07:52:19.598Z,2552.00
2018-08-24T07:53:19.560Z,2460.00
2018-08-24T07:54:19.526Z,2360.00
2018-08-24T07:55:19.497Z,2236.00
2018-08-24T07:56:19.457Z,2148.00
2018-08-24T07:57:19.423Z,2120.00
2018-08-24T07:58:19.391Z,1980.00
2018-08-24T07:59:19.358Z,1904.00
2018-08-24T08:00:19.328Z,1904.00
2018-08-24T08:01:19.296Z,1916.00
2018-08-24T08:02:19.255Z,1944.00
2018-08-24T08:03:19.224Z,1980.00
2018-08-24T08:04:19.184Z,2056.00
2018-08-24T08:05:19.197Z,2156.00
2018-08-24T08:06:19.122Z,2216.00
2018-08-24T08:07:19.088Z,2268.00
2018-08-24T08:08:19.048Z,2308.00
2018-08-24T08:09:19.016Z,2316.00
2018-08-24T08:10:18.984Z,2328.00
2018-08-24T08:11:18.948Z,2348.00
2018-08-24T08:12:18.917Z,2404.00
2018-08-24T08:13:18.883Z,2472.00
2018-08-24T08:14:18.848Z,2560.00
2018-08-24T08:15:18.820Z,2664.00
2018-08-24T08:16:18.778Z,2692.00
2018-08-24T08:17:18.746Z,2732.00
2018-08-24T08:18:18.778Z,2796.00
2018-08-24T08:19:18.678Z,2884.00
2018-08-24T08:20:18.654Z,2872.00
2018-08-24T08:21:18.614Z,2832.00
2018-08-24T08:22:18.584Z,2856.00
2018-08-24T08:23:18.548Z,2904.00
2018-08-24T08:24:18.520Z,2928.00
2018-08-24T08:25:18.485Z,2984.00
2018-08-24T08:26:18.445Z,3052.00
2018-08-24T08:27:18.413Z,3124.00
2018-08-24T08:28:18.374Z,3184.00
2018-08-24T08:29:18.342Z,3236.00
2018-08-24T08:30:18.308Z,3348.00
2018-08-24T08:31:18.276Z,3584.00
2018-08-24T08:32:18.246Z,3748.00
2018-08-24T08:33:18.212Z,3912.00
2018-08-24T08:34:18.175Z,4032.00
2018-08-24T08:35:18.145Z,4168.00
2018-08-24T08:36:18.106Z,4248.00
2018-08-24T08:37:18.072Z,4364.00
2018-08-24T08:38:18.042Z,4224.00
2018-08-24T08:39:18.012Z,4460.00
2018-08-24T08:40:17.971Z,4404.00
2018-08-24T08:41:17.938Z,4524.00
2018-08-24T08:42:17.906Z,4508.00
2018-08-24T08:43:17.870Z,4500.00
2018-08-24T08:44:17.847Z,4504.00
2018-08-24T08:45:17.858Z,4372.00
2018-08-24T08:46:17.775Z,4056.00
2018-08-24T08:47:17.741Z,3876.00
2018-08-24T08:48:17.704Z,3612.00
2018-08-24T08:49:17.673Z,3568.00
2018-08-24T08:50:17.637Z,3220.00
2018-08-24T08:51:17.606Z,3268.00
2018-08-24T08:52:17.579Z,2976.00
2018-08-24T08:53:17.589Z,2620.00
2018-08-24T08:54:17.508Z,2584.00
2018-08-24T08:55:17.474Z,2404.00
2018-08-24T08:56:17.448Z,2356.00
2018-08-24T08:57:17.413Z,2512.00
2018-08-24T08:58:17.380Z,2800.00
2018-08-24T08:59:17.347Z,3160.00
2018-08-24T09:00:17.304Z,3724.00
2018-08-24T09:01:17.271Z,4228.00
2018-08-24T09:02:17.239Z,5368.00
2018-08-24T09:03:17.205Z,5108.00
2018-08-24T09:04:17.176Z,6356.00
2018-08-24T09:05:17.141Z,5116.00
2018-08-24T09:06:17.147Z,4468.00
2018-08-24T09:07:17.077Z,4408.00
2018-08-24T09:08:17.039Z,4952.00
2018-08-24T09:09:17.005Z,4088.00
2018-08-24T09:10:16.977Z,3976.00
2018-08-24T09:11:16.947Z,4420.00
2018-08-24T09:12:16.901Z,4864.00
2018-08-24T09:13:16.874Z,6308.00
2018-08-24T09:14:16.840Z,6840.00
2018-08-24T09:15:16.804Z,7160.00
2018-08-24T09:16:16.777Z,6384.00
2018-08-24T09:17:16.743Z,6352.00
2018-08-24T09:18:16.710Z,6852.00
2018-08-24T09:19:16.677Z,6900.00
2018-08-24T09:20:16.638Z,5044.00
2018-08-24T09:21:16.615Z,4208.00
2018-08-24T09:22:16.578Z,3720.00
2018-08-24T09:23:16.542Z,3448.00
2018-08-24T09:24:16.513Z,3828.00
2018-08-24T09:25:16.483Z,3952.00
2018-08-24T09:26:16.444Z,3552.00
2018-08-24T09:27:16.409Z,3024.00
2018-08-24T09:28:16.386Z,2576.00
2018-08-24T09:29:16.350Z,2444.00
2018-08-24T09:30:16.317Z,2608.00
2018-08-24T09:31:16.294Z,2564.00
2018-08-24T09:32:16.247Z,2460.00
2018-08-24T09:33:16.215Z,2524.00
2018-08-24T09:34:16.182Z,2816.00
2018-08-24T09:35:16.147Z,3060.00
2018-08-24T09:36:16.119Z,2864.00
2018-08-24T09:37:16.086Z,2900.00
2018-08-24T09:38:16.052Z,3004.00
2018-08-24T09:39:16.024Z,2904.00
2018-08-24T09:40:15.985Z,3100.00
2018-08-24T09:41:15.952Z,3064.00
2018-08-24T09:42:15.923Z,2984.00
2018-08-24T09:43:15.898Z,3204.00
2018-08-24T09:44:15.850Z,3128.00
2018-08-24T09:45:15.819Z,3512.00
2018-08-24T09:46:15.788Z,3892.00
2018-08-24T09:47:15.750Z,6280.00
2018-08-24T09:48:15.725Z,4852.00
2018-08-24T09:49:15.773Z,6924.00
2018-08-24T09:50:15.660Z,7284.00
2018-08-24T09:51:15.623Z,7292.00
2018-08-24T09:52:15.585Z,7432.00
2018-08-24T09:53:15.555Z,6920.00
2018-08-24T09:54:15.521Z,5280.00
2018-08-24T09:55:15.487Z,4764.00
2018-08-24T09:56:15.459Z,4236.00
2018-08-24T09:57:15.425Z,4264.00
2018-08-24T09:58:15.389Z,4000.00
2018-08-24T09:59:15.353Z,3948.00
2018-08-24T10:00:15.328Z,3744.00
2018-08-24T10:01:15.293Z,3612.00
2018-08-24T10:02:15.260Z,3736.00
2018-08-24T10:03:15.230Z,3468.00
2018-08-24T10:04:15.194Z,3408.00
2018-08-24T10:05:15.208Z,5492.00
2018-08-24T10:06:15.158Z,5592.00
2018-08-24T10:21:03.013Z,6240.00
2018-08-24T10:22:02.934Z,6324.00
2018-08-24T10:23:02.951Z,6128.00
2018-08-24T10:24:02.861Z,6056.00
2018-08-24T10:25:02.834Z,6016.00
2018-08-24T10:26:02.785Z,6620.00
2018-08-24T10:27:02.751Z,7036.00
2018-08-24T10:28:02.718Z,6624.00
2018-08-24T10:29:02.687Z,6972.00
2018-08-24T10:30:02.654Z,6232.00
2018-08-24T10:31:02.618Z,4080.00
2018-08-24T10:32:02.592Z,4100.00
2018-08-24T10:33:02.547Z,4420.00
2018-08-24T10:34:02.509Z,5492.00
2018-08-24T10:35:02.476Z,5068.00
2018-08-24T10:36:02.446Z,5304.00
2018-08-24T10:37:02.427Z,4768.00
2018-08-24T10:38:02.399Z,5884.00
2018-08-24T10:39:02.407Z,5900.00
2018-08-24T10:40:02.310Z,5288.00
2018-08-24T10:41:02.331Z,4344.00
2018-08-24T10:42:02.248Z,5092.00
2018-08-24T10:43:02.214Z,3928.00
2018-08-24T10:44:02.175Z,3532.00
2018-08-24T10:45:02.151Z,3400.00
2018-08-24T10:46:02.108Z,3348.00
2018-08-24T10:47:02.076Z,3420.00
2018-08-24T10:48:02.044Z,3524.00
2018-08-24T10:49:02.014Z,3432.00
2018-08-24T10:50:01.984Z,3400.00
2018-08-24T10:51:01.950Z,3396.00
2018-08-24T10:52:01.915Z,3828.00
2018-08-24T10:53:01.945Z,4840.00
2018-08-24T10:54:01.841Z,5336.00
2018-08-24T10:55:01.888Z,5248.00
2018-08-24T10:56:01.912Z,5096.00
2018-08-24T10:57:01.752Z,4724.00
2018-08-24T10:58:01.710Z,4376.00
2018-08-24T10:59:01.681Z,4148.00
2018-08-24T11:00:01.650Z,3832.00
2018-08-24T11:01:01.619Z,3472.00
2018-08-24T11:02:01.631Z,3556.00
2018-08-24T11:03:01.571Z,3988.00
2018-08-24T11:04:01.517Z,3644.00
2018-08-24T11:05:01.487Z,5024.00
2018-08-24T11:06:01.451Z,4176.00
2018-08-24T11:07:01.417Z,3644.00
2018-08-24T11:08:01.388Z,3744.00
2018-08-24T11:09:01.360Z,4996.00
2018-08-24T11:10:01.326Z,4368.00
2018-08-24T11:11:01.288Z,4744.00
2018-08-24T11:12:01.254Z,4520.00
2018-08-24T11:13:01.221Z,4368.00
2018-08-24T11:14:01.199Z,3916.00
2018-08-24T11:15:01.159Z,4904.00
2018-08-24T11:16:01.127Z,5368.00
2018-08-24T11:17:01.089Z,4376.00
2018-08-24T11:18:01.056Z,5348.00
2018-08-24T11:19:01.026Z,5408.00
2018-08-24T11:20:00.998Z,5684.00
2018-08-24T11:21:00.965Z,5704.00
2018-08-24T11:22:00.935Z,5704.00
2018-08-24T11:23:00.901Z,4584.00
2018-08-24T11:24:00.861Z,3736.00
2018-08-24T11:25:00.834Z,4072.00
2018-08-24T11:26:00.831Z,4708.00
2018-08-24T11:27:00.843Z,5332.00
2018-08-24T11:28:00.738Z,4924.00
2018-08-24T11:29:00.705Z,4408.00
2018-08-24T11:30:00.666Z,4648.00
2018-08-24T11:31:00.637Z,4952.00
2018-08-24T11:32:00.604Z,4312.00
2018-08-24T11:33:00.588Z,4388.00
2018-08-24T11:34:00.558Z,4408.00
2018-08-24T11:35:00.508Z,4344.00
2018-08-24T11:36:00.490Z,4532.00
2018-08-24T11:37:00.441Z,5668.00
2018-08-24T11:38:00.428Z,4264.00
2018-08-24T11:39:00.377Z,6428.00
2018-08-24T11:40:00.348Z,5424.00
2018-08-24T11:41:00.322Z,4616.00
2018-08-24T11:42:00.328Z,6568.00
2018-08-24T11:43:00.253Z,6184.00
2018-08-24T11:44:00.217Z,5524.00
2018-08-24T11:45:00.188Z,6424.00
2018-08-24T11:46:00.193Z,6456.00
2018-08-24T11:47:00.125Z,5784.00
2018-08-24T11:48:00.164Z,5264.00
2018-08-24T11:49:00.056Z,4944.00
2018-08-24T11:50:00.027Z,5140.00
2018-08-24T11:51:00.000Z,5476.00
2018-08-24T11:51:59.965Z,5124.00
2018-08-24T11:52:59.933Z,5580.00
2018-08-24T11:53:59.904Z,5400.00
2018-08-24T11:54:59.868Z,5064.00
2018-08-24T11:55:59.842Z,5300.00
2018-08-24T11:56:59.803Z,6524.00
2018-08-24T11:57:59.771Z,6488.00
2018-08-24T11:58:59.739Z,6580.00
2018-08-24T11:59:59.716Z,6572.00
2018-08-24T12:00:59.678Z,6724.00
2018-08-24T12:01:59.643Z,5432.00
2018-08-24T12:02:59.610Z,5580.00
2018-08-24T12:03:59.582Z,6624.00
2018-08-24T12:04:59.551Z,6320.00
2018-08-24T12:05:59.518Z,6224.00
2018-08-24T12:06:59.488Z,5924.00
2018-08-24T12:07:59.604Z,5800.00
2018-08-24T12:08:59.418Z,5520.00
2018-08-24T12:09:59.388Z,5260.00
2018-08-24T12:10:59.356Z,5092.00
2018-08-24T12:11:59.365Z,5228.00
2018-08-24T12:12:59.299Z,5044.00
2018-08-24T12:13:59.347Z,5480.00
2018-08-24T12:14:59.231Z,5280.00
2018-08-24T12:15:59.198Z,5180.00
2018-08-24T12:16:59.165Z,5308.00
2018-08-24T12:17:59.147Z,5108.00
2018-08-24T12:18:59.103Z,5192.00
2018-08-24T12:19:59.072Z,5020.00
2018-08-24T12:20:59.038Z,4920.00
2018-08-24T12:21:59.007Z,4708.00
2018-08-24T12:22:58.979Z,4864.00
2018-08-24T12:23:58.951Z,4932.00
2018-08-24T12:24:58.917Z,5008.00
2018-08-24T12:25:58.882Z,5096.00
2018-08-24T12:26:58.903Z,5084.00
2018-08-24T12:27:58.819Z,5176.00
2018-08-24T12:28:58.788Z,5360.00
2018-08-24T12:29:58.749Z,5220.00
2018-08-24T12:30:58.732Z,5084.00
2018-08-24T12:31:58.688Z,5088.00
2018-08-24T12:32:58.659Z,5076.00
2018-08-24T12:33:58.624Z,5164.00
2018-08-24T12:34:58.591Z,5400.00
2018-08-24T12:35:58.560Z,5452.00
2018-08-24T12:36:58.544Z,5248.00
2018-08-24T12:37:58.553Z,5592.00
2018-08-24T12:38:58.465Z,5400.00
2018-08-24T12:39:58.454Z,5608.00
2018-08-24T12:40:58.399Z,5552.00
2018-08-24T12:41:58.371Z,5284.00
2018-08-24T12:42:58.336Z,5704.00
2018-08-24T12:43:58.318Z,5316.00
2018-08-24T12:44:58.280Z,4984.00
2018-08-24T12:45:58.253Z,5208.00
2018-08-24T12:46:58.211Z,5776.00
2018-08-24T12:47:58.181Z,5028.00
2018-08-24T12:48:58.147Z,4760.00
2018-08-24T12:49:58.120Z,4716.00
2018-08-24T12:50:58.084Z,4672.00
2018-08-24T12:51:58.081Z,4908.00
2018-08-24T12:52:58.019Z,5028.00
2018-08-24T12:53:57.986Z,5276.00
2018-08-24T12:54:57.956Z,5656.00
2018-08-24T12:55:57.925Z,5852.00
2018-08-24T12:56:57.895Z,5784.00
2018-08-24T12:57:57.868Z,5796.00
2018-08-24T12:58:57.829Z,6008.00